createdAt,value
2023-07-10T00:00:18.146Z,19.71
2023-07-10T00:02:48.440Z,19.72
2023-07-10T00:05:16.527Z,19.71
2023-07-10T00:07:44.022Z,19.70
2023-07-10T00:10:11.801Z,19.60
2023-07-10T00:12:39.395Z,19.54
2023-07-10T00:15:15.181Z,19.50
2023-07-10T00:17:42.306Z,19.45
2023-07-10T00:20:15.196Z,19.43
2023-07-10T00:22:42.216Z,19.41
2023-07-10T00:25:10.242Z,19.41
2023-07-10T00:27:37.448Z,19.40
2023-07-10T00:30:14.715Z,19.39
2023-07-10T00:32:43.535Z,19.35
2023-07-10T00:35:12.493Z,19.31
2023-07-10T00:37:39.544Z,19.30
2023-07-10T00:40:19.544Z,19.29
2023-07-10T00:42:48.114Z,19.27
2023-07-10T00:45:17.197Z,19.26
2023-07-10T00:47:54.135Z,19.24
2023-07-10T00:50:25.055Z,19.23
2023-07-10T00:52:54.124Z,19.21
2023-07-10T00:55:27.664Z,19.20
2023-07-10T00:58:10.783Z,19.17
2023-07-10T01:01:05.970Z,19.11
2023-07-10T01:03:36.162Z,19.03
2023-07-10T01:06:07.932Z,18.98
2023-07-10T01:08:37.180Z,18.96
2023-07-10T01:11:04.326Z,18.94
2023-07-10T01:13:32.530Z,18.90
2023-07-10T01:16:00.146Z,18.83
2023-07-10T01:18:27.763Z,18.78
2023-07-10T01:21:08.799Z,18.75
2023-07-10T01:23:36.059Z,18.71
2023-07-10T01:26:07.176Z,18.67
2023-07-10T01:28:35.172Z,18.61
2023-07-10T01:31:05.385Z,18.57
2023-07-10T01:33:37.162Z,18.53
2023-07-10T01:36:07.838Z,18.53
2023-07-10T01:38:39.013Z,18.52
2023-07-10T01:41:15.720Z,18.51
2023-07-10T01:43:42.686Z,18.49
2023-07-10T01:46:18.711Z,18.47
2023-07-10T01:48:47.089Z,18.48
2023-07-10T01:51:15.929Z,18.48
2023-07-10T01:53:46.061Z,18.50
2023-07-10T01:56:14.308Z,18.51
2023-07-10T01:58:41.549Z,18.46
2023-07-10T02:01:09.749Z,18.40
2023-07-10T02:03:37.233Z,18.37
2023-07-10T02:06:05.666Z,18.37
2023-07-10T02:08:34.364Z,18.34
2023-07-10T02:11:01.492Z,18.32
2023-07-10T02:13:28.533Z,18.27
2023-07-10T02:16:01.740Z,18.23
2023-07-10T02:18:28.969Z,18.21
2023-07-10T02:20:56.032Z,18.17
2023-07-10T02:23:23.593Z,18.14
2023-07-10T02:25:52.584Z,18.10
2023-07-10T02:28:19.695Z,18.07
2023-07-10T02:30:47.481Z,18.06
2023-07-10T02:33:14.894Z,18.04
2023-07-10T02:35:41.922Z,18.00
2023-07-10T02:38:09.500Z,17.96
2023-07-10T02:40:36.532Z,17.98
2023-07-10T02:43:05.382Z,17.97
2023-07-10T02:45:35.553Z,17.95
2023-07-10T02:48:02.725Z,17.95
2023-07-10T02:50:30.135Z,17.95
2023-07-10T02:52:57.259Z,17.94
2023-07-10T02:55:24.308Z,17.94
2023-07-10T02:57:51.423Z,17.94
2023-07-10T03:00:20.351Z,17.92
2023-07-10T03:02:47.401Z,17.90
2023-07-10T03:05:14.495Z,17.89
2023-07-10T03:07:41.541Z,17.89
2023-07-10T03:10:09.801Z,17.93
2023-07-10T03:12:36.856Z,17.94
2023-07-10T03:15:05.795Z,17.96
2023-07-10T03:17:34.941Z,17.98
2023-07-10T03:20:02.095Z,18.00
2023-07-10T03:22:29.092Z,18.03
2023-07-10T03:24:56.674Z,18.08
2023-07-10T03:27:24.450Z,18.15
2023-07-10T03:29:51.847Z,18.18
2023-07-10T03:32:19.036Z,18.22
2023-07-10T03:34:49.519Z,18.28
2023-07-10T03:37:16.533Z,18.35
2023-07-10T03:39:43.578Z,18.41
2023-07-10T03:42:11.913Z,18.47
2023-07-10T03:44:38.950Z,18.56
2023-07-10T03:47:06.961Z,18.61
2023-07-10T03:49:34.249Z,18.66
2023-07-10T03:52:02.812Z,18.71
2023-07-10T03:54:33.587Z,18.73
2023-07-10T03:57:00.750Z,18.79
2023-07-10T03:59:27.732Z,18.83
2023-07-10T04:01:54.778Z,18.90
2023-07-10T04:04:21.769Z,18.98
2023-07-10T04:06:51.410Z,19.10
2023-07-10T04:09:20.764Z,19.19
2023-07-10T04:11:47.941Z,19.25
2023-07-10T04:14:15.714Z,19.23
2023-07-10T04:16:42.806Z,19.35
2023-07-10T04:19:10.579Z,19.51
2023-07-10T04:21:37.640Z,19.62
2023-07-10T04:24:05.686Z,19.69
2023-07-10T04:26:35.014Z,19.76
2023-07-10T04:29:05.023Z,19.86
2023-07-10T04:31:32.880Z,19.92
2023-07-10T04:34:00.405Z,20.03
2023-07-10T04:36:28.053Z,20.24
2023-07-10T04:38:55.241Z,20.43
2023-07-10T04:41:24.606Z,20.64
2023-07-10T04:43:53.525Z,20.82
2023-07-10T04:46:21.340Z,21.02
2023-07-10T04:48:49.034Z,21.21
2023-07-10T04:51:18.357Z,21.38
2023-07-10T04:53:46.803Z,21.61
2023-07-10T04:56:16.666Z,21.80
2023-07-10T04:58:53.812Z,21.92
2023-07-10T05:01:22.990Z,22.01
2023-07-10T05:03:50.822Z,22.08
2023-07-10T05:06:18.572Z,22.20
2023-07-10T05:08:46.517Z,22.35
2023-07-10T05:11:13.872Z,22.55
2023-07-10T05:13:41.265Z,22.77
2023-07-10T05:16:10.075Z,23.01
2023-07-10T05:18:37.157Z,23.27
2023-07-10T05:21:04.642Z,23.47
2023-07-10T05:23:31.756Z,23.67
2023-07-10T05:26:04.122Z,23.86
2023-07-10T05:28:31.632Z,24.00
2023-07-10T05:31:02.008Z,24.13
2023-07-10T05:33:34.694Z,24.35
2023-07-10T05:36:04.738Z,24.52
2023-07-10T05:38:34.011Z,24.66
2023-07-10T05:41:01.553Z,24.75
2023-07-10T05:43:29.414Z,24.90
2023-07-10T05:45:56.800Z,25.03
2023-07-10T05:48:23.883Z,25.24
2023-07-10T05:50:52.933Z,25.31
2023-07-10T05:55:48.856Z,25.59
2023-07-10T05:58:18.191Z,25.73
2023-07-10T06:00:47.266Z,25.85
2023-07-10T06:03:14.769Z,25.91
2023-07-10T06:05:43.648Z,26.09
2023-07-10T06:08:12.190Z,26.32
2023-07-10T06:10:39.378Z,26.49
2023-07-10T06:13:06.418Z,26.77
2023-07-10T06:15:33.505Z,26.90
2023-07-10T06:18:00.676Z,27.08
2023-07-10T06:20:27.803Z,27.27
2023-07-10T06:22:54.863Z,27.44
2023-07-10T06:25:23.228Z,27.63
2023-07-10T06:27:52.551Z,27.75
2023-07-10T06:30:19.915Z,27.80
2023-07-10T06:32:49.220Z,27.87
2023-07-10T06:35:16.697Z,27.97
2023-07-10T06:37:45.572Z,27.99
2023-07-10T06:40:14.944Z,27.99
2023-07-10T06:42:43.807Z,27.95
2023-07-10T06:45:15.329Z,28.07
2023-07-10T06:47:44.006Z,28.29
2023-07-10T06:50:13.227Z,28.43
2023-07-10T06:52:41.849Z,28.51
2023-07-10T06:55:11.249Z,28.56
2023-07-10T06:57:38.257Z,28.70
2023-07-10T07:00:10.015Z,28.84
2023-07-10T07:02:37.352Z,29.04
2023-07-10T07:05:05.980Z,29.23
2023-07-10T07:07:33.021Z,29.47
2023-07-10T07:10:00.331Z,29.50
2023-07-10T07:12:28.237Z,29.49
2023-07-10T07:14:55.431Z,29.44
2023-07-10T07:17:23.911Z,29.54
2023-07-10T07:19:51.032Z,29.78
2023-07-10T07:22:20.808Z,29.91
2023-07-10T07:24:47.882Z,29.96
2023-07-10T07:27:15.426Z,30.02
2023-07-10T07:29:42.576Z,30.11
2023-07-10T07:32:13.303Z,30.15
2023-07-10T07:34:41.736Z,30.43
2023-07-10T07:37:09.131Z,30.59
2023-07-10T07:39:39.111Z,30.67
2023-07-10T07:42:06.823Z,30.66
2023-07-10T07:44:34.388Z,30.77
2023-07-10T07:47:01.462Z,30.97
2023-07-10T07:49:28.665Z,31.18
2023-07-10T07:51:57.378Z,31.40
2023-07-10T07:54:24.497Z,31.48
2023-07-10T07:56:51.625Z,31.63
2023-07-10T07:59:19.397Z,31.83
2023-07-10T08:01:47.143Z,32.01
2023-07-10T08:04:14.281Z,31.99
2023-07-10T08:06:44.182Z,31.98
2023-07-10T08:09:13.503Z,31.93
2023-07-10T08:11:40.663Z,32.01
2023-07-10T08:14:07.702Z,32.20
2023-07-10T08:16:34.803Z,32.40
2023-07-10T08:19:02.309Z,32.49
2023-07-10T08:21:29.304Z,32.42
2023-07-10T08:23:56.378Z,32.60
2023-07-10T08:26:25.122Z,32.64
2023-07-10T08:28:52.394Z,32.78
2023-07-10T08:31:20.098Z,32.87
2023-07-10T08:33:47.204Z,32.99
2023-07-10T08:36:14.593Z,33.10
2023-07-10T08:38:41.584Z,33.22
2023-07-10T08:41:19.204Z,33.42
2023-07-10T08:43:49.122Z,33.59
2023-07-10T08:46:19.586Z,33.73
2023-07-10T08:48:52.598Z,33.83
2023-07-10T08:51:35.862Z,34.01
2023-07-10T08:54:06.118Z,34.22
2023-07-10T08:56:35.596Z,34.16
2023-07-10T08:59:16.145Z,34.16
2023-07-10T09:01:47.594Z,34.29
2023-07-10T09:04:17.568Z,34.50
2023-07-10T09:06:49.448Z,34.53
2023-07-10T09:09:38.803Z,34.44
2023-07-10T09:12:11.462Z,34.57
2023-07-10T09:14:49.299Z,34.69
2023-07-10T09:17:27.496Z,34.89
2023-07-10T09:19:55.753Z,34.99
2023-07-10T09:22:22.968Z,35.04
2023-07-10T09:24:50.392Z,35.22
2023-07-10T09:27:17.472Z,35.38
2023-07-10T09:29:50.938Z,35.46
2023-07-10T09:32:20.234Z,35.52
2023-07-10T09:34:50.357Z,35.24
2023-07-10T09:37:20.814Z,34.91
2023-07-10T09:39:48.062Z,34.83
2023-07-10T09:42:17.467Z,34.93
2023-07-10T09:44:52.965Z,34.98
2023-07-10T09:47:22.014Z,34.81
2023-07-10T09:49:52.982Z,34.57
2023-07-10T09:52:24.700Z,34.49
2023-07-10T09:55:00.276Z,34.67
2023-07-10T09:57:27.892Z,34.79
2023-07-10T09:59:57.754Z,34.67
2023-07-10T10:02:28.072Z,34.66
2023-07-10T10:05:04.876Z,34.72
2023-07-10T10:07:40.490Z,35.12
2023-07-10T10:10:29.364Z,35.45
2023-07-10T10:13:03.480Z,35.28
2023-07-10T10:15:41.625Z,34.83
2023-07-10T10:18:18.394Z,34.68
2023-07-10T10:20:46.677Z,34.35
2023-07-10T10:23:29.240Z,34.17
2023-07-10T10:26:14.027Z,34.50
2023-07-10T10:28:51.469Z,34.88
2023-07-10T10:31:26.210Z,34.62
2023-07-10T10:33:59.478Z,34.26
2023-07-10T10:36:34.036Z,33.89
2023-07-10T10:39:11.981Z,33.80
2023-07-10T10:41:48.405Z,34.23
2023-07-10T10:44:45.394Z,34.71
2023-07-10T10:47:30.978Z,35.18
2023-07-10T10:50:07.686Z,35.00
2023-07-10T10:52:43.941Z,35.04
2023-07-10T10:55:27.754Z,35.21
2023-07-10T10:58:06.129Z,35.45
2023-07-10T11:00:42.692Z,35.40
2023-07-10T11:03:21.205Z,35.65
2023-07-10T11:05:51.452Z,35.96
2023-07-10T11:08:24.554Z,36.26
2023-07-10T11:10:54.927Z,36.49
2023-07-10T11:13:28.787Z,36.07
2023-07-10T11:15:56.524Z,35.92
2023-07-10T11:18:25.525Z,36.05
2023-07-10T11:20:53.211Z,36.42
2023-07-10T11:23:34.627Z,36.67
2023-07-10T11:26:04.246Z,36.68
2023-07-10T11:28:33.163Z,36.71
2023-07-10T11:31:32.431Z,36.85
2023-07-10T11:34:39.431Z,36.88
2023-07-10T11:37:49.775Z,36.31
2023-07-10T11:40:46.478Z,36.07
2023-07-10T11:43:56.553Z,35.86
2023-07-10T11:46:29.986Z,36.10
2023-07-10T11:49:10.613Z,36.33
2023-07-10T11:51:40.679Z,36.32
2023-07-10T11:54:38.809Z,35.89
2023-07-10T11:57:13.206Z,35.76
2023-07-10T11:59:53.115Z,35.95
2023-07-10T12:02:45.194Z,36.04
2023-07-10T12:05:17.865Z,36.17
2023-07-10T12:08:02.276Z,36.06
2023-07-10T12:10:32.817Z,36.15
2023-07-10T12:13:01.991Z,36.27
2023-07-10T12:15:29.160Z,36.36
2023-07-10T12:17:57.057Z,36.45
2023-07-10T12:20:29.217Z,36.57
2023-07-10T12:23:01.766Z,36.76
2023-07-10T12:25:28.932Z,36.88
2023-07-10T12:28:23.031Z,36.93
2023-07-10T12:30:49.568Z,36.95
2023-07-10T12:33:39.393Z,36.97
2023-07-10T12:36:23.037Z,37.03
2023-07-10T12:38:51.009Z,37.05
2023-07-10T12:41:20.730Z,37.00
2023-07-10T12:43:49.764Z,37.07
2023-07-10T12:46:19.377Z,36.97
2023-07-10T12:48:46.585Z,36.97
2023-07-10T12:51:23.866Z,36.94
2023-07-10T12:53:52.278Z,36.86
2023-07-10T12:56:27.494Z,36.75
2023-07-10T12:58:57.171Z,36.71
2023-07-10T13:01:28.666Z,36.63
2023-07-10T13:04:00.902Z,36.64
2023-07-10T13:06:29.375Z,36.63
2023-07-10T13:08:58.072Z,36.42
2023-07-10T13:11:40.444Z,36.18
2023-07-10T13:14:15.519Z,36.15
2023-07-10T13:16:45.863Z,36.18
2023-07-10T13:19:13.335Z,36.40
2023-07-10T13:21:41.721Z,36.50
2023-07-10T13:24:08.877Z,36.67
2023-07-10T13:26:35.960Z,36.56
2023-07-10T13:29:03.170Z,36.20
2023-07-10T13:31:33.710Z,36.19
2023-07-10T13:34:00.904Z,36.32
2023-07-10T13:36:28.685Z,36.41
2023-07-10T13:38:57.433Z,36.46
2023-07-10T13:41:26.131Z,36.27
2023-07-10T13:43:53.464Z,36.15
2023-07-10T13:46:23.239Z,36.09
2023-07-10T13:48:52.460Z,35.93
2023-07-10T13:51:20.915Z,35.86
2023-07-10T13:53:48.414Z,35.87
2023-07-10T13:56:19.014Z,35.83
2023-07-10T13:58:46.180Z,35.77
2023-07-10T14:01:14.268Z,35.79
2023-07-10T14:03:42.468Z,35.79
2023-07-10T14:06:30.913Z,35.87
2023-07-10T14:09:02.594Z,35.79
2023-07-10T14:11:31.716Z,35.46
2023-07-10T14:13:58.877Z,35.11
2023-07-10T14:16:29.204Z,35.14
2023-07-10T14:18:57.368Z,35.24
2023-07-10T14:21:24.640Z,35.25
2023-07-10T14:23:52.550Z,35.21
2023-07-10T14:26:23.484Z,35.15
2023-07-10T14:28:53.146Z,35.06
2023-07-10T14:31:20.958Z,35.00
2023-07-10T14:33:48.476Z,34.94
2023-07-10T14:36:17.550Z,34.98
2023-07-10T14:38:45.426Z,34.95
2023-07-10T14:41:14.820Z,34.96
2023-07-10T14:43:42.755Z,34.96
2023-07-10T14:46:15.517Z,34.85
2023-07-10T14:48:44.020Z,34.80
2023-07-10T14:51:11.747Z,34.77
2023-07-10T14:53:39.101Z,34.71
2023-07-10T14:56:11.772Z,34.62
2023-07-10T14:58:39.086Z,34.62
2023-07-10T15:01:06.337Z,34.65
2023-07-10T15:03:35.197Z,34.63
2023-07-10T15:06:03.535Z,34.57
2023-07-10T15:08:34.337Z,34.45
2023-07-10T15:11:02.289Z,34.39
2023-07-10T15:13:32.081Z,34.32
2023-07-10T15:16:01.520Z,34.30
2023-07-10T15:18:31.058Z,34.22
2023-07-10T15:20:59.671Z,34.16
2023-07-10T15:23:28.429Z,34.07
2023-07-10T15:26:06.667Z,34.00
2023-07-10T15:28:34.039Z,33.93
2023-07-10T15:31:04.703Z,33.82
2023-07-10T15:33:34.390Z,33.69
2023-07-10T15:36:03.336Z,33.59
2023-07-10T15:38:32.395Z,33.54
2023-07-10T15:41:02.928Z,33.46
2023-07-10T15:43:32.056Z,33.38
2023-07-10T15:46:00.655Z,33.29
2023-07-10T15:48:29.042Z,33.20
2023-07-10T15:50:57.781Z,33.05
2023-07-10T15:53:29.100Z,32.92
2023-07-10T15:55:56.813Z,32.82
2023-07-10T15:58:25.256Z,32.79
2023-07-10T16:00:55.335Z,32.74
2023-07-10T16:03:25.614Z,32.66
2023-07-10T16:05:55.023Z,32.57
2023-07-10T16:08:24.332Z,32.49
2023-07-10T16:10:56.111Z,32.44
2023-07-10T16:13:25.387Z,32.40
2023-07-10T16:15:53.084Z,32.31
2023-07-10T16:18:25.878Z,32.18
2023-07-10T16:20:54.626Z,32.05
2023-07-10T16:23:27.211Z,31.98
2023-07-10T16:25:55.683Z,31.89
2023-07-10T16:28:25.342Z,31.77
2023-07-10T16:30:52.874Z,31.70
2023-07-10T16:33:22.095Z,31.60
2023-07-10T16:35:49.729Z,31.48
2023-07-10T16:38:19.586Z,31.35
2023-07-10T16:40:49.284Z,31.27
2023-07-10T16:43:19.460Z,31.20
2023-07-10T16:45:53.299Z,31.11
2023-07-10T16:48:23.395Z,31.01
2023-07-10T16:50:52.808Z,30.90
2023-07-10T16:53:29.139Z,30.83
2023-07-10T16:55:58.169Z,30.75
2023-07-10T16:58:29.559Z,30.62
2023-07-10T17:00:57.446Z,30.54
2023-07-10T17:03:27.342Z,30.48
2023-07-10T17:05:57.932Z,30.42
2023-07-10T17:08:27.883Z,30.33
2023-07-10T17:10:58.156Z,30.21
2023-07-10T17:13:30.249Z,30.10
2023-07-10T17:15:57.954Z,30.01
2023-07-10T17:18:27.141Z,29.96
2023-07-10T17:20:55.961Z,29.89
2023-07-10T17:23:27.822Z,29.83
2023-07-10T17:25:55.687Z,29.74
2023-07-10T17:28:24.494Z,29.63
2023-07-10T17:30:55.045Z,29.47
2023-07-10T17:33:36.452Z,29.39
2023-07-10T17:36:04.378Z,29.31
2023-07-10T17:38:32.406Z,29.20
2023-07-10T17:40:59.946Z,29.12
2023-07-10T17:43:32.214Z,29.03
2023-07-10T17:46:02.467Z,28.90
2023-07-10T17:48:30.800Z,28.78
2023-07-10T17:51:05.693Z,28.66
2023-07-10T17:53:33.000Z,28.54
2023-07-10T17:56:00.086Z,28.40
2023-07-10T17:58:29.336Z,28.26
2023-07-10T18:00:56.928Z,28.16
2023-07-10T18:03:32.209Z,28.06
2023-07-10T18:05:59.566Z,27.93
2023-07-10T18:08:29.065Z,27.83
2023-07-10T18:11:02.409Z,27.70
2023-07-10T18:13:34.787Z,27.59
2023-07-10T18:16:03.291Z,27.51
2023-07-10T18:18:33.229Z,27.41
2023-07-10T18:21:01.336Z,27.33
2023-07-10T18:23:30.644Z,27.23
2023-07-10T18:25:59.284Z,27.16
2023-07-10T18:28:28.500Z,27.07
2023-07-10T18:30:57.174Z,27.00
2023-07-10T18:33:26.262Z,26.91
2023-07-10T18:35:57.867Z,26.85
2023-07-10T18:38:27.337Z,26.77
2023-07-10T18:40:58.700Z,26.73
2023-07-10T18:43:30.842Z,26.63
2023-07-10T18:45:58.546Z,26.56
2023-07-10T18:48:33.603Z,26.47
2023-07-10T18:51:07.054Z,26.40
2023-07-10T18:53:34.407Z,26.31
2023-07-10T18:56:01.369Z,26.24
2023-07-10T18:58:30.433Z,26.18
2023-07-10T19:00:59.035Z,26.10
2023-07-10T19:03:26.352Z,25.99
2023-07-10T19:05:54.971Z,25.90
2023-07-10T19:08:25.373Z,25.83
2023-07-10T19:10:53.331Z,25.76
2023-07-10T19:13:22.481Z,25.69
2023-07-10T19:15:55.351Z,25.62
2023-07-10T19:18:25.473Z,25.56
2023-07-10T19:20:52.963Z,25.51
2023-07-10T19:23:22.021Z,25.45
2023-07-10T19:25:51.070Z,25.40
2023-07-10T19:28:19.254Z,25.36
2023-07-10T19:30:52.275Z,25.26
2023-07-10T19:33:24.348Z,25.18
2023-07-10T19:35:52.326Z,25.14
2023-07-10T19:38:21.597Z,25.08
2023-07-10T19:40:51.808Z,25.06
2023-07-10T19:43:18.970Z,25.04
2023-07-10T19:45:47.343Z,25.00
2023-07-10T19:48:16.282Z,24.98
2023-07-10T19:50:43.875Z,24.97
2023-07-10T19:53:22.601Z,24.92
2023-07-10T19:55:52.995Z,24.86
2023-07-10T19:58:23.606Z,24.83
2023-07-10T20:00:50.698Z,24.82
2023-07-10T20:03:20.123Z,24.80
2023-07-10T20:05:48.203Z,24.77
2023-07-10T20:08:19.616Z,24.73
2023-07-10T20:10:48.597Z,24.71
2023-07-10T20:13:18.575Z,24.60
2023-07-10T20:15:48.924Z,24.51
2023-07-10T20:18:23.416Z,24.40
2023-07-10T20:20:51.333Z,24.30
2023-07-10T20:23:20.220Z,24.23
2023-07-10T20:25:49.714Z,24.13
2023-07-10T20:28:20.862Z,24.05
2023-07-10T20:30:49.586Z,23.98
2023-07-10T20:33:18.489Z,23.92
2023-07-10T20:35:46.094Z,23.93
2023-07-10T20:38:15.669Z,23.91
2023-07-10T20:40:42.800Z,23.84
2023-07-10T20:43:16.167Z,23.82
2023-07-10T20:45:47.983Z,23.80
2023-07-10T20:48:21.908Z,23.76
2023-07-10T20:50:51.309Z,23.75
2023-07-10T20:53:19.688Z,23.78
2023-07-10T20:55:49.403Z,23.85
2023-07-10T20:58:18.251Z,23.87
2023-07-10T21:00:48.017Z,23.93
2023-07-10T21:03:17.658Z,23.91
2023-07-10T21:05:45.979Z,23.94
2023-07-10T21:08:24.333Z,23.94
2023-07-10T21:10:53.364Z,23.91
2023-07-10T21:13:22.017Z,23.91
2023-07-10T21:15:50.693Z,23.81
2023-07-10T21:18:22.824Z,23.77
2023-07-10T21:20:50.963Z,23.78
2023-07-10T21:23:25.758Z,23.76
2023-07-10T21:25:53.256Z,23.73
2023-07-10T21:28:24.074Z,23.57
2023-07-10T21:30:52.833Z,23.47
2023-07-10T21:33:21.411Z,23.42
2023-07-10T21:35:51.903Z,23.35
2023-07-10T21:38:18.978Z,23.36
2023-07-10T21:40:47.048Z,23.34
2023-07-10T21:43:28.540Z,23.33
2023-07-10T21:45:57.117Z,23.31
2023-07-10T21:48:28.006Z,23.35
2023-07-10T21:50:56.673Z,23.40
2023-07-10T21:53:24.854Z,23.41
2023-07-10T21:55:53.662Z,23.40
2023-07-10T21:58:24.905Z,23.29
2023-07-10T22:00:53.064Z,23.20
2023-07-10T22:03:26.288Z,23.18
2023-07-10T22:05:55.087Z,23.21
2023-07-10T22:08:22.857Z,23.22
2023-07-10T22:10:51.727Z,23.14
2023-07-10T22:13:21.246Z,23.11
2023-07-10T22:15:50.514Z,23.09
2023-07-10T22:18:19.296Z,23.07
2023-07-10T22:20:49.620Z,22.98
2023-07-10T22:23:16.787Z,22.99
2023-07-10T22:25:44.137Z,23.01
2023-07-10T22:28:16.369Z,22.96
2023-07-10T22:30:45.880Z,22.93
2023-07-10T22:33:14.209Z,22.88
2023-07-10T22:35:41.825Z,22.85
2023-07-10T22:38:12.442Z,22.84
2023-07-10T22:40:40.804Z,22.83
2023-07-10T22:43:12.114Z,22.84
2023-07-10T22:45:39.704Z,22.86
2023-07-10T22:48:11.336Z,22.87
2023-07-10T22:50:40.387Z,22.88
2023-07-10T22:53:07.616Z,22.88
2023-07-10T22:55:36.317Z,22.87
2023-07-10T22:58:04.445Z,22.83
2023-07-10T23:00:34.284Z,22.79
2023-07-10T23:03:01.708Z,22.80
2023-07-10T23:05:32.066Z,22.81
2023-07-10T23:07:59.223Z,22.79
2023-07-10T23:10:28.586Z,22.70
2023-07-10T23:12:57.344Z,22.69
2023-07-10T23:15:24.706Z,22.69
2023-07-10T23:17:51.907Z,22.68
2023-07-10T23:20:22.675Z,22.66
2023-07-10T23:22:52.122Z,22.60
2023-07-10T23:25:19.231Z,22.56
2023-07-10T23:27:46.536Z,22.53
2023-07-10T23:30:16.084Z,22.49
2023-07-10T23:32:43.283Z,22.43
2023-07-10T23:35:12.026Z,22.39
2023-07-10T23:37:39.105Z,22.33
2023-07-10T23:40:15.682Z,22.30
2023-07-10T23:42:43.676Z,22.24
2023-07-10T23:45:12.112Z,22.16
2023-07-10T23:47:41.601Z,22.08
2023-07-10T23:50:10.964Z,22.07
2023-07-10T23:52:38.578Z,21.99
2023-07-10T23:55:08.335Z,21.95
2023-07-10T23:57:35.541Z,21.91
